Time;durP1;ratioP1;P1;durP2;ratioP2;P2;SDS_P1;SDS_P2;PMS_P1;PMS_P2;Temp;Humidity;BMP_temperature;BMP_pressure;BME280_temperature;BME280_humidity;BME280_pressure;Samples;Min_cycle;Max_cycle;Signal;HPM_P1;HPM_P2
2022/05/26 00:01:24;;;;;;;12.13;7.05;;;;;;;;;;1938199;74;21077;-58
2022/05/26 00:03:54;;;;;;;8.83;6.47;;;;;;;;;;1938249;74;21115;-58
2022/05/26 00:06:23;;;;;;;8.15;7.00;;;;;;;;;;1938281;74;21022;-58
2022/05/26 00:08:52;;;;;;;7.50;5.92;;;;;;;;;;1938236;74;21473;-58
2022/05/26 00:11:22;;;;;;;7.40;6.55;;;;;;;;;;1938161;74;21050;-58
2022/05/26 00:13:51;;;;;;;7.70;6.55;;;;;;;;;;1938243;74;21050;-57
2022/05/26 00:16:20;;;;;;;8.45;7.58;;;;;;;;;;1938099;74;21116;-58
2022/05/26 00:18:49;;;;;;;12.20;6.80;;;;;;;;;;1938165;74;21100;-58
2022/05/26 00:21:18;;;;;;;9.98;7.10;;;;;;;;;;1938190;74;21050;-58
2022/05/26 00:23:47;;;;;;;7.72;6.95;;;;;;;;;;1938244;74;21120;-58
2022/05/26 00:26:17;;;;;;;11.53;8.50;;;;;;;;;;1938239;74;21159;-58
2022/05/26 00:28:46;;;;;;;9.03;7.72;;;;;;;;;;1938123;74;21082;-58
2022/05/26 00:31:15;;;;;;;7.80;6.95;;;;;;;;;;1938233;74;21038;-58
2022/05/26 00:33:44;;;;;;;10.72;7.60;;;;;;;;;;1938183;74;21026;-58
2022/05/26 00:36:13;;;;;;;9.25;6.83;;;;;;;;;;1938261;74;21030;-58
2022/05/26 00:38:42;;;;;;;8.53;7.03;;;;;;;;;;1938251;74;21045;-58
2022/05/26 00:41:12;;;;;;;8.18;7.15;;;;;;;;;;1938128;74;21046;-58
2022/05/26 00:43:42;;;;;;;11.90;6.97;;;;;;;;;;1938184;74;21003;-58
2022/05/26 00:46:15;;;;;;;8.73;6.87;;;;;;;;;;1935154;73;21062;-58
2022/05/26 00:48:46;;;;;;;8.00;7.12;;;;;;;;;;1935154;73;21002;-58
2022/05/26 00:51:16;;;;;;;8.60;6.95;;;;;;;;;;1935552;74;21030;-58
2022/05/26 00:53:46;;;;;;;9.35;7.22;;;;;;;;;;1935522;74;21501;-58
2022/05/26 00:56:15;;;;;;;8.10;7.10;;;;;;;;;;1935580;74;21030;-58
2022/05/26 00:58:45;;;;;;;7.70;7.00;;;;;;;;;;1935646;74;21116;-58
2022/05/26 01:01:14;;;;;;;7.30;6.58;;;;;;;;;;1935655;74;21027;-58
2022/05/26 01:03:47;;;;;;;8.60;7.70;;;;;;;;;;1935508;74;21019;-58
2022/05/26 01:06:29;;;;;;;9.30;7.60;;;;;;;;;;1935548;74;21069;-58
2022/05/26 01:08:59;;;;;;;7.05;6.35;;;;;;;;;;1933950;73;21030;-58
2022/05/26 01:11:29;;;;;;;9.05;6.97;;;;;;;;;;1935458;74;21481;-58
2022/05/26 01:14:02;;;;;;;9.50;6.33;;;;;;;;;;1935550;74;21480;-58
2022/05/26 01:16:35;;;;;;;7.28;6.08;;;;;;;;;;1933959;73;21089;-58
2022/05/26 01:19:11;;;;;;;9.10;6.12;;;;;;;;;;1935161;73;21010;-58
2022/05/26 01:21:43;;;;;;;8.78;6.95;;;;;;;;;;1934073;74;21038;-57
2022/05/26 01:24:17;;;;;;;8.40;6.87;;;;;;;;;;1933289;74;21054;-58
2022/05/26 01:26:46;;;;;;;8.15;7.35;;;;;;;;;;1935718;74;21104;-58
2022/05/26 01:29:19;;;;;;;8.05;7.05;;;;;;;;;;1935595;74;21054;-58
2022/05/26 01:31:58;;;;;;;9.90;7.42;;;;;;;;;;1935718;74;21121;-58
2022/05/26 01:34:34;;;;;;;8.80;7.08;;;;;;;;;;1935458;74;21089;-58
2022/05/26 01:37:20;;;;;;;10.70;7.08;;;;;;;;;;1934971;73;21002;-59
2022/05/26 01:39:53;;;;;;;10.72;7.30;;;;;;;;;;1934883;73;21050;-58
2022/05/26 01:42:32;;;;;;;11.33;7.05;;;;;;;;;;1935782;74;21030;-58
2022/05/26 01:45:08;;;;;;;9.78;8.05;;;;;;;;;;1935414;73;21289;-58
2022/05/26 01:47:55;;;;;;;9.65;7.33;;;;;;;;;;1935645;74;21069;-58
2022/05/26 01:50:28;;;;;;;9.90;7.60;;;;;;;;;;1935621;74;21058;-58
2022/05/26 01:53:01;;;;;;;8.75;7.17;;;;;;;;;;1935633;74;21104;-58
2022/05/26 01:55:34;;;;;;;8.80;7.72;;;;;;;;;;1934642;74;21030;-58
2022/05/26 01:58:04;;;;;;;8.55;7.47;;;;;;;;;;1935377;73;21038;-58
2022/05/26 02:00:32;;;;;;;8.00;7.25;;;;;;;;;;1935246;74;21066;-58
2022/05/26 02:03:02;;;;;;;11.53;7.80;;;;;;;;;;1935606;74;21026;-58
2022/05/26 02:05:32;;;;;;;9.40;7.55;;;;;;;;;;1935726;74;21038;-58
2022/05/26 02:08:08;;;;;;;11.83;8.13;;;;;;;;;;1933761;73;21100;-58
2022/05/26 02:10:54;;;;;;;11.40;8.33;;;;;;;;;;1935554;74;21108;-59
2022/05/26 02:13:21;;;;;;;;;;;;;;;;;;1938076;74;21042;-58
2022/05/26 02:15:52;;;;;;;8.30;7.15;;;;;;;;;;1935602;74;20427;-58
2022/05/26 02:18:22;;;;;;;8.63;7.83;;;;;;;;;;1934244;74;21112;-58
2022/05/26 02:20:52;;;;;;;7.87;7.10;;;;;;;;;;1934281;74;21183;-58
2022/05/26 02:23:37;;;;;;;7.87;7.05;;;;;;;;;;1935705;74;21030;-59
2022/05/26 02:26:05;;;;;;;;;;;;;;;;;;1938514;74;21042;-59
2022/05/26 02:29:51;;;;;;;8.85;6.85;;;;;;;;;;1935735;74;20440;-58
2022/05/26 02:31:04;;;;;;;8.50;7.65;;;;;;;;;;1931730;74;21478;-58
2022/05/26 02:33:33;;;;;;;8.08;7.28;;;;;;;;;;1935622;74;21022;-59
2022/05/26 02:36:02;;;;;;;7.78;6.55;;;;;;;;;;1935546;74;21124;-59
2022/05/26 02:38:31;;;;;;;7.60;6.90;;;;;;;;;;1935608;74;21038;-59
2022/05/26 02:41:01;;;;;;;7.35;6.65;;;;;;;;;;1935663;74;21010;-58
2022/05/26 02:43:30;;;;;;;8.15;7.33;;;;;;;;;;1935692;74;21038;-59
2022/05/26 02:46:12;;;;;;;9.03;6.95;;;;;;;;;;1936402;73;21183;-59
2022/05/26 02:48:42;;;;;;;8.18;7.35;;;;;;;;;;1936921;74;21528;-59
2022/05/26 02:51:29;;;;;;;7.58;6.87;;;;;;;;;;1934053;73;21065;-59
2022/05/26 02:54:02;;;;;;;7.22;6.50;;;;;;;;;;1935581;74;21124;-59
2022/05/26 02:56:35;;;;;;;8.90;6.40;;;;;;;;;;1935627;74;21034;-59
2022/05/26 02:59:05;;;;;;;7.55;6.83;;;;;;;;;;1935391;74;21108;-59
2022/05/26 03:01:35;;;;;;;7.33;6.72;;;;;;;;;;1935638;74;21038;-59
2022/05/26 03:04:07;;;;;;;7.78;7.03;;;;;;;;;;1934717;73;21027;-59
2022/05/26 03:06:45;;;;;;;8.40;7.25;;;;;;;;;;1935787;74;21032;-59
2022/05/26 03:09:14;;;;;;;8.58;7.72;;;;;;;;;;1935108;73;21026;-59
2022/05/26 03:11:49;;;;;;;7.97;7.17;;;;;;;;;;1935644;74;21022;-59
2022/05/26 03:14:19;;;;;;;13.30;6.87;;;;;;;;;;1935648;74;21053;-59
2022/05/26 03:16:48;;;;;;;7.47;6.62;;;;;;;;;;1935687;74;21112;-59
2022/05/26 03:19:17;;;;;;;7.75;7.05;;;;;;;;;;1935660;74;21097;-59
2022/05/26 03:21:46;;;;;;;7.25;6.53;;;;;;;;;;1935698;74;21014;-59
2022/05/26 03:24:15;;;;;;;7.12;6.50;;;;;;;;;;1935679;74;21081;-59
2022/05/26 03:26:44;;;;;;;6.58;5.97;;;;;;;;;;1935743;74;21120;-59
2022/05/26 03:29:13;;;;;;;6.85;6.15;;;;;;;;;;1935530;74;21119;-59
2022/05/26 03:31:42;;;;;;;6.92;6.25;;;;;;;;;;1935603;74;21116;-57
2022/05/26 03:42:31;;;;;;;6.10;5.53;;;;;;;;;;1935537;74;21038;-58
2022/05/26 03:45:00;;;;;;;8.50;5.90;;;;;;;;;;1935560;74;21046;-58
2022/05/26 03:47:30;;;;;;;7.90;6.35;;;;;;;;;;1935577;74;21046;-58
2022/05/26 03:49:59;;;;;;;6.17;5.58;;;;;;;;;;1935625;73;21551;-57
2022/05/26 03:52:28;;;;;;;6.60;6.00;;;;;;;;;;1935653;74;21116;-58
2022/05/26 03:54:57;;;;;;;6.05;5.45;;;;;;;;;;1935500;74;21077;-58
2022/05/26 03:57:27;;;;;;;6.10;5.55;;;;;;;;;;1935517;74;21046;-58
2022/05/26 03:59:55;;;;;;;6.03;5.42;;;;;;;;;;1935604;74;21031;-58
2022/05/26 04:02:24;;;;;;;5.62;4.90;;;;;;;;;;1935650;74;21034;-58
2022/05/26 04:04:53;;;;;;;8.13;6.40;;;;;;;;;;1935550;74;21034;-58
2022/05/26 04:07:22;;;;;;;6.60;5.55;;;;;;;;;;1935568;74;21101;-58
2022/05/26 04:09:50;;;;;;;5.75;5.17;;;;;;;;;;1935456;74;21088;-58
2022/05/26 04:12:19;;;;;;;8.20;5.37;;;;;;;;;;1935516;74;21011;-58
2022/05/26 04:14:48;;;;;;;5.97;5.47;;;;;;;;;;1935430;74;21038;-58
2022/05/26 04:17:16;;;;;;;6.30;5.17;;;;;;;;;;1935640;74;21030;-58
2022/05/26 04:19:45;;;;;;;5.05;4.65;;;;;;;;;;1935568;74;21018;-58
2022/05/26 04:22:23;;;;;;;8.60;5.03;;;;;;;;;;1935532;74;21034;-58
2022/05/26 04:24:48;;;;;;;6.87;5.42;;;;;;;;;;1934169;74;21077;-58
2022/05/26 04:27:17;;;;;;;8.90;5.42;;;;;;;;;;1935608;74;21108;-58
2022/05/26 04:29:46;;;;;;;8.70;5.12;;;;;;;;;;1935555;74;21034;-58
2022/05/26 04:32:15;;;;;;;7.47;5.92;;;;;;;;;;1935572;74;21038;-58
2022/05/26 04:34:48;;;;;;;4.50;4.10;;;;;;;;;;1935467;74;21111;-58
2022/05/26 04:37:14;;;;;;;6.28;5.00;;;;;;;;;;1935109;74;21433;-57
2022/05/26 04:39:43;;;;;;;8.78;5.15;;;;;;;;;;1935431;74;21032;-58
2022/05/26 04:42:12;;;;;;;6.78;4.83;;;;;;;;;;1935496;74;21010;-58
2022/05/26 04:44:43;;;;;;;7.40;4.45;;;;;;;;;;1935606;74;21038;-58
2022/05/26 04:47:13;;;;;;;5.70;4.35;;;;;;;;;;1935682;74;21092;-58
2022/05/26 04:49:42;;;;;;;4.62;4.20;;;;;;;;;;1935488;73;21042;-58
2022/05/26 04:52:12;;;;;;;9.15;4.50;;;;;;;;;;1935693;74;21104;-58
2022/05/26 04:54:42;;;;;;;6.35;4.05;;;;;;;;;;1935564;74;21070;-57
2022/05/26 04:57:11;;;;;;;7.12;4.20;;;;;;;;;;1935594;74;21042;-58
2022/05/26 04:59:40;;;;;;;4.85;3.40;;;;;;;;;;1935536;74;21010;-58
2022/05/26 05:02:16;;;;;;;9.75;4.67;;;;;;;;;;1935437;74;21046;-58
2022/05/26 05:04:48;;;;;;;6.90;6.20;;;;;;;;;;1935699;74;21038;-57
2022/05/26 05:07:17;;;;;;;5.72;4.95;;;;;;;;;;1935693;74;21480;-58
2022/05/26 05:09:46;;;;;;;4.83;4.15;;;;;;;;;;1935528;74;21002;-58
2022/05/26 05:12:19;;;;;;;8.48;4.95;;;;;;;;;;1935624;74;21038;-58
2022/05/26 05:14:49;;;;;;;5.67;3.90;;;;;;;;;;1935525;74;21093;-57
2022/05/26 05:17:19;;;;;;;8.13;3.77;;;;;;;;;;1935641;74;21054;-58
2022/05/26 05:19:48;;;;;;;6.72;4.20;;;;;;;;;;1935684;74;21078;-57
2022/05/26 05:22:18;;;;;;;14.75;4.53;;;;;;;;;;1935693;74;21112;-58
2022/05/26 05:24:48;;;;;;;5.45;4.20;;;;;;;;;;1935681;74;21007;-58
2022/05/26 05:27:18;;;;;;;6.67;4.30;;;;;;;;;;1935720;74;21027;-58
2022/05/26 05:29:47;;;;;;;4.70;3.80;;;;;;;;;;1935596;74;21038;-58
2022/05/26 05:32:17;;;;;;;5.35;4.20;;;;;;;;;;1935631;74;21558;-58
2022/05/26 05:34:47;;;;;;;5.22;4.33;;;;;;;;;;1931677;73;21108;-57
2022/05/26 05:37:16;;;;;;;4.28;3.95;;;;;;;;;;1935606;74;21031;-58
2022/05/26 05:39:45;;;;;;;5.83;4.15;;;;;;;;;;1935655;74;21129;-58
2022/05/26 05:42:13;;;;;;;8.15;4.58;;;;;;;;;;1935511;74;21085;-57
2022/05/26 05:44:43;;;;;;;9.90;4.05;;;;;;;;;;1935411;74;21046;-57
2022/05/26 05:47:11;;;;;;;6.92;4.35;;;;;;;;;;1935529;74;21038;-57
2022/05/26 05:49:40;;;;;;;3.55;3.25;;;;;;;;;;1936346;73;21066;-58
2022/05/26 05:52:10;;;;;;;3.60;3.30;;;;;;;;;;1938216;74;21104;-58
2022/05/26 05:54:39;;;;;;;4.58;3.65;;;;;;;;;;1938338;73;21485;-58
2022/05/26 05:57:08;;;;;;;7.97;3.95;;;;;;;;;;1938282;73;21150;-58
2022/05/26 05:59:37;;;;;;;5.83;4.05;;;;;;;;;;1938306;74;21195;-58
2022/05/26 06:02:06;;;;;;;5.70;3.90;;;;;;;;;;1938406;74;21042;-58
2022/05/26 06:04:41;;;;;;;7.17;3.35;;;;;;;;;;1938421;74;21018;-58
2022/05/26 06:07:07;;;;;;;22.62;6.40;;;;;;;;;;1937909;74;21520;-57
2022/05/26 06:09:37;;;;;;;13.13;5.08;;;;;;;;;;1938288;74;21042;-58
2022/05/26 06:12:06;;;;;;;3.40;3.10;;;;;;;;;;1938337;74;21042;-58
2022/05/26 06:14:36;;;;;;;6.75;3.40;;;;;;;;;;1938281;74;21103;-58
2022/05/26 06:17:07;;;;;;;5.97;3.17;;;;;;;;;;1938395;74;21089;-58
2022/05/26 06:19:35;;;;;;;7.67;3.50;;;;;;;;;;1938295;74;21488;-58
2022/05/26 06:22:12;;;;;;;6.20;3.50;;;;;;;;;;1938395;74;21038;-58
2022/05/26 06:24:41;;;;;;;3.50;2.95;;;;;;;;;;1938366;74;21557;-58
2022/05/26 06:29:58;;;;;;;3.87;3.05;;;;;;;;;;1938237;74;21073;-58
2022/05/26 06:38:01;;;;;;;6.15;3.08;;;;;;;;;;1938199;74;21046;-58
2022/05/26 06:40:31;;;;;;;5.47;2.83;;;;;;;;;;1938169;74;21050;-58
2022/05/26 06:43:00;;;;;;;2.77;2.58;;;;;;;;;;1938284;74;21034;-58
2022/05/26 06:45:29;;;;;;;4.35;2.70;;;;;;;;;;1938177;74;21050;-58
2022/05/26 06:47:58;;;;;;;5.75;3.62;;;;;;;;;;1938097;74;21081;-57
2022/05/26 06:50:27;;;;;;;6.53;2.87;;;;;;;;;;1936948;74;21074;-57
2022/05/26 06:52:56;;;;;;;6.37;2.85;;;;;;;;;;1935672;74;21058;-58
2022/05/26 06:55:24;;;;;;;4.17;2.92;;;;;;;;;;1935634;74;21042;-58
2022/05/26 06:57:53;;;;;;;2.80;2.60;;;;;;;;;;1935552;74;21038;-57
2022/05/26 07:00:22;;;;;;;3.17;2.87;;;;;;;;;;1935681;74;21123;-58
2022/05/26 07:02:54;;;;;;;3.67;3.15;;;;;;;;;;1935655;74;21097;-58
2022/05/26 07:05:23;;;;;;;4.40;2.87;;;;;;;;;;1935535;74;21038;-58
2022/05/26 07:07:52;;;;;;;6.28;2.92;;;;;;;;;;1935586;74;21032;-58
2022/05/26 07:10:20;;;;;;;3.25;2.95;;;;;;;;;;1935619;74;21038;-58
2022/05/26 07:12:49;;;;;;;4.33;2.77;;;;;;;;;;1935599;74;21046;-58
2022/05/26 07:15:18;;;;;;;3.00;2.70;;;;;;;;;;1935585;74;21078;-58
2022/05/26 07:17:47;;;;;;;6.70;2.98;;;;;;;;;;1935381;74;21183;-58
2022/05/26 07:20:16;;;;;;;3.45;2.65;;;;;;;;;;1934182;74;21163;-58
2022/05/26 07:22:46;;;;;;;3.50;2.70;;;;;;;;;;1929152;73;21459;-58
2022/05/26 07:25:15;;;;;;;4.08;2.77;;;;;;;;;;1928343;74;21033;-58
2022/05/26 07:27:44;;;;;;;8.08;3.95;;;;;;;;;;1927842;74;21147;-58
2022/05/26 07:30:13;;;;;;;3.00;2.70;;;;;;;;;;1932363;73;21112;-58
2022/05/26 07:32:42;;;;;;;6.15;2.98;;;;;;;;;;1930663;73;21484;-58
2022/05/26 07:35:11;;;;;;;3.35;2.58;;;;;;;;;;1934197;74;21017;-58
2022/05/26 07:43:13;;;;;;;11.38;3.40;;;;;;;;;;1935229;74;21036;-58
2022/05/26 07:45:41;;;;;;;4.22;2.80;;;;;;;;;;1935149;74;21023;-58
2022/05/26 07:48:10;;;;;;;6.17;3.10;;;;;;;;;;1935113;74;21099;-57
2022/05/26 07:50:39;;;;;;;3.98;3.02;;;;;;;;;;1929361;74;21073;-58
2022/05/26 07:53:08;;;;;;;9.50;3.72;;;;;;;;;;1915552;75;21096;-58
2022/05/26 07:55:38;;;;;;;8.30;4.20;;;;;;;;;;1915321;75;21080;-58
2022/05/26 07:58:07;;;;;;;3.60;3.05;;;;;;;;;;1915624;75;21018;-58
2022/05/26 08:00:36;;;;;;;4.92;3.10;;;;;;;;;;1915586;75;21083;-58
2022/05/26 08:03:05;;;;;;;6.22;3.50;;;;;;;;;;1915396;75;21053;-58
2022/05/26 08:05:34;;;;;;;3.58;3.22;;;;;;;;;;1915550;75;21025;-58
2022/05/26 08:08:03;;;;;;;4.75;3.00;;;;;;;;;;1915595;75;21091;-58
2022/05/26 08:10:31;;;;;;;2.25;2.05;;;;;;;;;;1915583;75;21101;-58
2022/05/26 08:13:00;;;;;;;3.92;2.40;;;;;;;;;;1915651;75;21076;-58
2022/05/26 08:15:31;;;;;;;4.87;2.60;;;;;;;;;;1915471;75;21069;-58
2022/05/26 08:17:59;;;;;;;3.27;2.50;;;;;;;;;;1915440;75;21531;-58
2022/05/26 08:20:28;;;;;;;1.50;1.40;;;;;;;;;;1915724;75;20998;-58
2022/05/26 08:22:56;;;;;;;4.15;2.15;;;;;;;;;;1915603;75;21034;-58
2022/05/26 08:25:26;;;;;;;6.40;3.30;;;;;;;;;;1915524;75;21038;-58
2022/05/26 08:27:54;;;;;;;4.70;3.40;;;;;;;;;;1915546;75;21087;-58
2022/05/26 08:30:23;;;;;;;4.08;3.42;;;;;;;;;;1915692;75;21417;-58
2022/05/26 08:32:53;;;;;;;4.00;1.82;;;;;;;;;;1915723;75;21099;-58
2022/05/26 08:35:22;;;;;;;2.65;2.00;;;;;;;;;;1915498;75;21026;-58
2022/05/26 08:37:52;;;;;;;4.50;2.20;;;;;;;;;;1915253;75;21089;-58
2022/05/26 08:40:40;;;;;;;3.05;1.95;;;;;;;;;;1915493;75;21093;-58
2022/05/26 08:43:10;;;;;;;2.30;1.90;;;;;;;;;;1914784;75;21085;-58
2022/05/26 08:45:40;;;;;;;4.20;2.12;;;;;;;;;;1914824;75;21078;-58
2022/05/26 08:48:10;;;;;;;4.28;2.62;;;;;;;;;;1915396;75;21104;-58
2022/05/26 08:50:40;;;;;;;2.92;2.22;;;;;;;;;;1915760;74;21485;-58
2022/05/26 08:53:13;;;;;;;3.30;1.90;;;;;;;;;;1915749;75;21100;-58
2022/05/26 08:55:45;;;;;;;4.20;2.75;;;;;;;;;;1915411;75;21033;-58
2022/05/26 08:58:18;;;;;;;3.08;2.52;;;;;;;;;;1915717;75;21002;-58
2022/05/26 09:00:48;;;;;;;3.58;2.00;;;;;;;;;;1915679;75;21025;-58
2022/05/26 09:03:33;;;;;;;3.65;2.00;;;;;;;;;;1915625;75;21030;-58
2022/05/26 09:06:04;;;;;;;4.40;1.82;;;;;;;;;;1915638;75;21017;-57
2022/05/26 09:14:08;;;;;;;11.28;2.67;;;;;;;;;;1915519;75;21037;-58
2022/05/26 09:16:43;;;;;;;4.47;1.95;;;;;;;;;;1915548;75;21212;-57
2022/05/26 09:19:15;;;;;;;4.67;3.08;;;;;;;;;;1915641;75;21001;-58
2022/05/26 09:21:44;;;;;;;5.42;2.45;;;;;;;;;;1915488;75;21006;-58
2022/05/26 09:24:17;;;;;;;2.70;2.20;;;;;;;;;;1915411;75;21030;-58
2022/05/26 09:26:47;;;;;;;3.02;2.30;;;;;;;;;;1915592;75;21103;-58
2022/05/26 09:29:16;;;;;;;3.40;2.27;;;;;;;;;;1914164;75;21096;-58
2022/05/26 09:31:46;;;;;;;3.45;2.42;;;;;;;;;;1915521;75;20998;-58
2022/05/26 09:34:22;;;;;;;4.85;2.10;;;;;;;;;;1915484;75;21106;-57
2022/05/26 09:36:56;;;;;;;4.42;3.60;;;;;;;;;;1915494;75;21101;-57
2022/05/26 09:39:26;;;;;;;3.67;2.30;;;;;;;;;;1915659;75;21092;-57
2022/05/26 09:41:56;;;;;;;3.08;2.33;;;;;;;;;;1915052;75;21158;-58
2022/05/26 09:44:35;;;;;;;3.25;2.95;;;;;;;;;;1905301;75;21079;-58
2022/05/26 09:47:14;;;;;;;4.62;1.95;;;;;;;;;;1907701;75;21074;-58
2022/05/26 09:49:55;;;;;;;4.70;2.47;;;;;;;;;;1905933;75;21032;-58
2022/05/26 09:52:37;;;;;;;5.85;2.90;;;;;;;;;;1908826;74;21191;-57
2022/05/26 09:55:14;;;;;;;3.37;2.10;;;;;;;;;;1895037;74;21057;-58
2022/05/26 09:57:47;;;;;;;5.87;3.25;;;;;;;;;;1894688;75;21554;-58
2022/05/26 10:00:40;;;;;;;5.83;2.73;;;;;;;;;;1891935;76;21188;-58
2022/05/26 10:03:11;;;;;;;4.03;2.33;;;;;;;;;;1869927;76;21558;-58
2022/05/26 10:05:43;;;;;;;3.15;2.33;;;;;;;;;;1869403;76;21111;-58
2022/05/26 10:08:22;;;;;;;3.60;2.60;;;;;;;;;;1870429;77;21083;-58
2022/05/26 10:10:52;;;;;;;2.67;2.15;;;;;;;;;;1870622;77;21057;-58
2022/05/26 10:13:34;;;;;;;2.65;2.10;;;;;;;;;;1870481;77;21106;-57
2022/05/26 10:16:04;;;;;;;3.42;2.25;;;;;;;;;;1852282;77;21013;-58
2022/05/26 10:18:37;;;;;;;5.72;3.08;;;;;;;;;;1851813;77;21134;-57
2022/05/26 10:21:12;;;;;;;4.80;2.22;;;;;;;;;;1852310;77;21096;-58
2022/05/26 10:23:45;;;;;;;4.15;2.62;;;;;;;;;;1850836;77;21076;-57
2022/05/26 10:26:15;;;;;;;4.22;2.25;;;;;;;;;;1851645;77;21103;-57
2022/05/26 10:28:51;;;;;;;4.12;2.40;;;;;;;;;;1852545;77;21033;-57
2022/05/26 10:31:21;;;;;;;4.90;2.50;;;;;;;;;;1852502;77;21123;-58
2022/05/26 10:33:54;;;;;;;2.95;2.30;;;;;;;;;;1829135;78;21082;-57
2022/05/26 10:36:24;;;;;;;8.48;2.17;;;;;;;;;;1839562;78;21077;-57
2022/05/26 10:39:10;;;;;;;4.53;2.20;;;;;;;;;;1859680;77;21100;-57
2022/05/26 10:41:40;;;;;;;6.05;2.60;;;;;;;;;;1859653;77;21052;-58
2022/05/26 10:44:19;;;;;;;7.25;2.87;;;;;;;;;;1859819;77;21154;-58
2022/05/26 10:46:52;;;;;;;3.30;2.20;;;;;;;;;;1859808;76;21049;-57
2022/05/26 10:49:28;;;;;;;2.20;2.00;;;;;;;;;;1859708;77;21029;-57
2022/05/26 10:51:58;;;;;;;3.20;2.25;;;;;;;;;;1868601;76;21187;-58
2022/05/26 10:54:28;;;;;;;5.30;1.90;;;;;;;;;;1896151;76;21065;-57
2022/05/26 10:56:59;;;;;;;2.67;2.33;;;;;;;;;;1892219;75;21033;-57
2022/05/26 10:59:48;;;;;;;5.62;2.22;;;;;;;;;;1896271;76;21519;-57
2022/05/26 11:02:21;;;;;;;4.05;1.90;;;;;;;;;;1896166;76;21099;-57
2022/05/26 11:04:54;;;;;;;3.50;1.80;;;;;;;;;;1896147;76;21166;-58
2022/05/26 11:07:25;;;;;;;3.67;1.77;;;;;;;;;;1895771;75;21032;-57
2022/05/26 11:09:58;;;;;;;2.87;2.05;;;;;;;;;;1895442;76;21130;-57
2022/05/26 11:12:28;;;;;;;7.53;2.20;;;;;;;;;;1896193;76;21024;-57
2022/05/26 11:17:46;;;;;;;2.95;2.10;;;;;;;;;;1896041;76;21106;-57
2022/05/26 11:20:16;;;;;;;4.75;2.35;;;;;;;;;;1896189;76;21032;-57
2022/05/26 11:22:49;;;;;;;5.45;2.37;;;;;;;;;;1886240;76;21057;-57
2022/05/26 11:25:16;;;;;;;11.12;3.15;;;;;;;;;;1895049;75;21057;-58
2022/05/26 11:27:52;;;;;;;3.70;1.90;;;;;;;;;;1896192;76;21009;-58
2022/05/26 11:36:10;;;;;;;2.10;1.90;;;;;;;;;;1895998;76;21049;-59
2022/05/26 11:38:43;;;;;;;2.62;1.90;;;;;;;;;;1896222;76;21460;-58
2022/05/26 11:41:16;;;;;;;6.70;2.43;;;;;;;;;;1895775;75;21072;-59
2022/05/26 11:43:46;;;;;;;2.75;2.05;;;;;;;;;;1894724;76;21115;-58
2022/05/26 11:46:16;;;;;;;5.83;2.00;;;;;;;;;;1896242;76;21094;-59
2022/05/26 11:48:45;;;;;;;8.75;2.75;;;;;;;;;;1892046;76;21037;-59
2022/05/26 11:51:28;;;;;;;3.87;2.02;;;;;;;;;;1896206;76;21033;-59
2022/05/26 11:53:59;;;;;;;5.47;2.10;;;;;;;;;;1875725;75;21108;-58
2022/05/26 11:56:30;;;;;;;6.83;2.02;;;;;;;;;;1874532;76;21037;-59
2022/05/26 11:59:17;;;;;;;2.98;1.90;;;;;;;;;;1874665;76;21030;-58
2022/05/26 12:01:46;;;;;;;2.08;1.87;;;;;;;;;;1874516;76;21018;-58
2022/05/26 12:04:16;;;;;;;2.17;1.98;;;;;;;;;;1874659;76;21038;-58
2022/05/26 12:06:49;;;;;;;7.95;2.10;;;;;;;;;;1873511;76;21006;-58
2022/05/26 12:09:22;;;;;;;5.60;2.37;;;;;;;;;;1823239;76;21053;-58
2022/05/26 12:12:01;;;;;;;4.30;2.08;;;;;;;;;;1874596;76;21531;-58
2022/05/26 12:14:37;;;;;;;7.70;2.10;;;;;;;;;;1874574;76;21539;-58
2022/05/26 12:17:23;;;;;;;5.08;2.50;;;;;;;;;;1874529;76;21038;-58
2022/05/26 12:19:52;;;;;;;4.20;2.37;;;;;;;;;;1874509;76;21120;-58
2022/05/26 12:22:25;;;;;;;8.75;3.22;;;;;;;;;;1852487;76;21057;-59
2022/05/26 12:25:01;;;;;;;5.50;2.30;;;;;;;;;;1874526;76;21096;-59
2022/05/26 12:27:48;;;;;;;5.37;2.12;;;;;;;;;;1874540;76;21058;-59
2022/05/26 12:30:37;;;;;;;4.90;2.27;;;;;;;;;;1874558;76;21057;-58
2022/05/26 12:33:16;;;;;;;9.08;2.62;;;;;;;;;;1873421;76;21069;-59
2022/05/26 12:36:02;;;;;;;5.53;2.40;;;;;;;;;;1874562;76;21103;-59
2022/05/26 12:38:41;;;;;;;5.97;2.83;;;;;;;;;;1874494;76;21151;-59
2022/05/26 12:41:21;;;;;;;9.25;2.35;;;;;;;;;;1874503;76;21061;-59
2022/05/26 12:43:51;;;;;;;6.22;2.30;;;;;;;;;;1873921;76;21085;-58
2022/05/26 12:46:33;;;;;;;3.05;2.02;;;;;;;;;;1873888;76;21080;-59
2022/05/26 12:49:04;;;;;;;6.42;2.22;;;;;;;;;;1815810;76;21099;-59
2022/05/26 12:51:36;;;;;;;3.80;2.42;;;;;;;;;;1873996;76;21031;-59
2022/05/26 12:54:09;;;;;;;2.20;2.00;;;;;;;;;;1874527;76;21140;-58
2022/05/26 12:56:51;;;;;;;4.00;1.98;;;;;;;;;;1874424;76;21112;-59
2022/05/26 12:59:29;;;;;;;5.75;2.62;;;;;;;;;;1874224;76;21030;-58
2022/05/26 13:01:58;;;;;;;3.12;2.20;;;;;;;;;;1874614;76;21026;-58
2022/05/26 13:04:32;;;;;;;6.12;2.58;;;;;;;;;;1874459;76;21053;-59
2022/05/26 13:06:59;;;;;;;6.25;2.67;;;;;;;;;;1874451;76;21512;-59
2022/05/26 13:09:30;;;;;;;6.10;2.37;;;;;;;;;;1874400;76;21107;-59
2022/05/26 13:12:00;;;;;;;3.00;2.42;;;;;;;;;;1874397;76;21041;-58
2022/05/26 13:14:39;;;;;;;6.65;2.58;;;;;;;;;;1874457;76;21485;-59
2022/05/26 13:17:15;;;;;;;2.62;2.37;;;;;;;;;;1874007;76;21018;-58
2022/05/26 13:19:48;;;;;;;2.47;1.70;;;;;;;;;;1874528;76;21054;-59
2022/05/26 13:22:18;;;;;;;5.33;2.42;;;;;;;;;;1874391;76;21034;-58
2022/05/26 13:24:50;;;;;;;8.03;2.40;;;;;;;;;;1874409;76;21033;-59
2022/05/26 13:27:19;;;;;;;3.47;2.50;;;;;;;;;;1873379;76;21009;-59
2022/05/26 13:29:49;;;;;;;5.65;3.37;;;;;;;;;;1874500;76;21026;-59
2022/05/26 13:35:05;;;;;;;4.05;2.22;;;;;;;;;;1874656;76;21050;-59
2022/05/26 13:37:34;;;;;;;8.50;2.37;;;;;;;;;;1874643;76;21039;-59
2022/05/26 13:40:07;;;;;;;3.25;2.30;;;;;;;;;;1874671;76;21085;-59
2022/05/26 13:42:36;;;;;;;5.25;2.42;;;;;;;;;;1874635;76;21038;-59
2022/05/26 13:45:06;;;;;;;4.75;2.65;;;;;;;;;;1874662;76;21128;-59
2022/05/26 13:47:35;;;;;;;5.17;2.55;;;;;;;;;;1874698;76;21037;-59
2022/05/26 13:50:05;;;;;;;11.20;2.85;;;;;;;;;;1874636;76;21081;-60
2022/05/26 13:52:35;;;;;;;5.10;2.47;;;;;;;;;;1874706;76;21444;-59
2022/05/26 13:55:08;;;;;;;4.55;2.83;;;;;;;;;;1895678;76;21084;-59
2022/05/26 13:57:51;;;;;;;5.55;2.17;;;;;;;;;;1894788;76;21122;-59
2022/05/26 14:00:20;;;;;;;6.08;3.08;;;;;;;;;;1896154;76;21033;-59
2022/05/26 14:02:53;;;;;;;5.20;2.22;;;;;;;;;;1895846;76;21037;-59
2022/05/26 14:05:23;;;;;;;4.33;2.20;;;;;;;;;;1896205;76;21446;-58
2022/05/26 14:07:59;;;;;;;7.58;3.00;;;;;;;;;;1895262;75;21123;-59
2022/05/26 14:10:32;;;;;;;4.75;2.60;;;;;;;;;;1896153;76;21098;-59
2022/05/26 14:13:02;;;;;;;2.30;1.85;;;;;;;;;;1895111;76;21130;-57
2022/05/26 14:15:53;;;;;;;1.92;1.72;;;;;;;;;;1896174;76;21620;-56
2022/05/26 14:18:42;;;;;;;8.63;3.02;;;;;;;;;;1896044;76;21048;-57
2022/05/26 14:21:14;;;;;;;4.60;2.72;;;;;;;;;;1895947;76;21165;-59
2022/05/26 14:23:48;;;;;;;5.00;2.42;;;;;;;;;;1896267;76;21009;-59
2022/05/26 14:26:35;;;;;;;5.30;2.97;;;;;;;;;;1895190;75;21001;-59
2022/05/26 14:29:04;;;;;;;5.00;2.15;;;;;;;;;;1896234;76;21747;-59
2022/05/26 14:31:33;;;;;;;5.05;2.25;;;;;;;;;;1895664;76;21060;-59
2022/05/26 14:34:03;;;;;;;5.92;3.70;;;;;;;;;;1896442;76;21110;-59
2022/05/26 14:36:32;;;;;;;5.97;2.80;;;;;;;;;;1896149;76;21029;-59
2022/05/26 14:39:03;;;;;;;2.58;1.85;;;;;;;;;;1896181;76;21146;-56
2022/05/26 14:41:31;;;;;;;3.00;2.67;;;;;;;;;;1896134;76;21580;-57
2022/05/26 14:44:05;;;;;;;4.50;2.12;;;;;;;;;;1896133;76;21092;-57
2022/05/26 14:46:33;;;;;;;6.50;2.17;;;;;;;;;;1896208;76;21507;-57
2022/05/26 14:49:02;;;;;;;4.53;2.30;;;;;;;;;;1896065;76;21115;-57
2022/05/26 14:51:33;;;;;;;5.97;3.37;;;;;;;;;;1896038;76;21053;-57
2022/05/26 14:56:49;;;;;;;4.80;2.40;;;;;;;;;;1874449;76;21041;-57
2022/05/26 14:59:17;;;;;;;4.95;2.52;;;;;;;;;;1874628;76;21119;-57
2022/05/26 15:01:46;;;;;;;6.70;3.20;;;;;;;;;;1874543;76;21050;-57
2022/05/26 15:04:15;;;;;;;3.55;2.10;;;;;;;;;;1874552;76;21107;-57
2022/05/26 15:06:45;;;;;;;9.83;2.70;;;;;;;;;;1874565;76;21053;-57
2022/05/26 15:09:21;;;;;;;6.37;3.10;;;;;;;;;;1874677;76;21103;-57
2022/05/26 15:11:50;;;;;;;5.83;2.50;;;;;;;;;;1874553;76;21002;-57
2022/05/26 15:14:20;;;;;;;2.95;1.70;;;;;;;;;;1874608;76;21045;-57
2022/05/26 15:16:49;;;;;;;3.33;2.60;;;;;;;;;;1874607;76;21135;-56
2022/05/26 15:19:19;;;;;;;7.37;3.10;;;;;;;;;;1874687;76;21057;-56
2022/05/26 15:21:49;;;;;;;5.78;2.33;;;;;;;;;;1874642;76;21034;-56
2022/05/26 15:24:18;;;;;;;3.90;2.62;;;;;;;;;;1874587;76;21050;-56
2022/05/26 15:26:47;;;;;;;5.83;2.75;;;;;;;;;;1874645;76;21050;-56
2022/05/26 15:29:16;;;;;;;7.03;2.60;;;;;;;;;;1874560;76;21099;-56
2022/05/26 15:31:45;;;;;;;7.10;2.60;;;;;;;;;;1874483;76;21046;-57
2022/05/26 15:34:14;;;;;;;8.00;3.17;;;;;;;;;;1874526;76;21042;-56
2022/05/26 15:36:43;;;;;;;5.37;2.72;;;;;;;;;;1874464;76;21030;-56
2022/05/26 15:39:12;;;;;;;5.28;2.90;;;;;;;;;;1874682;76;21127;-59
2022/05/26 15:41:40;;;;;;;4.37;2.92;;;;;;;;;;1874569;76;21077;-59
2022/05/26 15:44:09;;;;;;;4.05;2.42;;;;;;;;;;1874602;76;21077;-59
2022/05/26 15:46:39;;;;;;;4.72;2.80;;;;;;;;;;1874659;76;21112;-59
2022/05/26 15:49:10;;;;;;;8.25;2.40;;;;;;;;;;1874698;76;21034;-59
2022/05/26 15:51:39;;;;;;;6.37;2.85;;;;;;;;;;1874655;76;21516;-59